Time;durP1;ratioP1;P1;durP2;ratioP2;P2;SDS_P1;SDS_P2;PMS_P1;PMS_P2;Temp;Humidity;BMP_temperature;BMP_pressure;BME280_temperature;BME280_humidity;BME280_pressure;Samples;Min_cycle;Max_cycle;Signal;HPM_P1;HPM_P2
2022/07/01 00:01:26;;;;;;;4.18;2.65;;;27.40;47.50;;;;;;4916370;29;20043;-49
2022/07/01 00:03:52;;;;;;;5.03;2.80;;;27.40;47.50;;;;;;4915253;29;20059;-48
2022/07/01 00:06:18;;;;;;;3.90;2.75;;;27.30;47.40;;;;;;4917866;29;20020;-49
2022/07/01 00:08:45;;;;;;;3.40;2.80;;;27.30;47.40;;;;;;4915521;29;20020;-47
2022/07/01 00:11:11;;;;;;;4.32;2.67;;;27.30;47.40;;;;;;4915358;29;20024;-48
2022/07/01 00:13:37;;;;;;;3.30;2.60;;;27.30;47.50;;;;;;4915744;29;20415;-48
2022/07/01 00:16:03;;;;;;;3.30;2.50;;;27.30;47.50;;;;;;4914793;29;20662;-48
2022/07/01 00:18:29;;;;;;;3.40;2.28;;;27.30;47.50;;;;;;4914971;29;20091;-49
2022/07/01 00:20:55;;;;;;;3.95;2.60;;;27.30;47.50;;;;;;4914543;29;20046;-48
2022/07/01 00:23:21;;;;;;;3.63;2.80;;;27.40;47.40;;;;;;4913257;29;20365;-53
2022/07/01 00:25:47;;;;;;;3.80;2.80;;;27.30;47.40;;;;;;4914177;29;20025;-48
2022/07/01 00:28:13;;;;;;;5.05;2.78;;;27.30;47.50;;;;;;4912216;29;20042;-49
2022/07/01 00:30:39;;;;;;;3.72;2.83;;;27.30;47.30;;;;;;4915148;29;20032;-48
2022/07/01 00:33:05;;;;;;;4.40;2.83;;;27.30;47.50;;;;;;4914797;29;20369;-48
2022/07/01 00:35:30;;;;;;;4.25;3.00;;;27.30;48.30;;;;;;4915801;29;20072;-49
2022/07/01 00:37:57;;;;;;;3.85;3.15;;;27.30;47.60;;;;;;4914083;29;20493;-49
2022/07/01 00:40:24;;;;;;;3.97;3.08;;;27.30;47.70;;;;;;4914731;29;20067;-49
2022/07/01 00:42:50;;;;;;;5.38;3.42;;;27.30;47.80;;;;;;4914869;29;20028;-48
2022/07/01 00:45:15;;;;;;;4.07;3.00;;;27.30;47.90;;;;;;4914392;29;20039;-48
2022/07/01 00:47:42;;;;;;;5.18;3.20;;;27.20;47.90;;;;;;4915444;29;20409;-48
2022/07/01 00:50:10;;;;;;;4.40;2.97;;;27.30;47.80;;;;;;4916482;29;20036;-49
2022/07/01 00:52:36;;;;;;;3.70;2.92;;;27.20;47.90;;;;;;4917114;29;20053;-48
2022/07/01 00:55:08;;;;;;;3.60;2.78;;;27.20;47.80;;;;;;4914656;29;20020;-49
2022/07/01 00:57:34;;;;;;;;;;;27.20;47.80;;;;;;4916941;29;20024;-48
2022/07/01 01:00:16;;;;;;;5.65;3.30;;;27.20;47.80;;;;;;4914954;29;19910;-49
2022/07/01 01:02:42;;;;;;;3.87;2.90;;;27.20;47.90;;;;;;4916356;29;20043;-48
2022/07/01 01:05:09;;;;;;;4.30;3.33;;;27.20;47.90;;;;;;4914750;29;20024;-48
2022/07/01 01:07:35;;;;;;;4.00;3.30;;;27.20;48.00;;;;;;4914545;29;20036;-49
2022/07/01 01:10:02;;;;;;;3.95;3.13;;;27.20;48.20;;;;;;4913760;29;20591;-48
2022/07/01 01:12:29;;;;;;;4.75;3.55;;;27.20;48.20;;;;;;4914269;29;20036;-48
2022/07/01 01:14:56;;;;;;;5.15;3.67;;;27.20;48.40;;;;;;4914562;29;20848;-48
2022/07/01 01:17:23;;;;;;;4.63;3.65;;;27.20;48.50;;;;;;4916266;29;20039;-48
2022/07/01 01:19:49;;;;;;;4.20;3.30;;;27.20;48.60;;;;;;4915007;29;20024;-48
2022/07/01 01:22:16;;;;;;;4.47;3.58;;;27.20;49.30;;;;;;4915025;29;20031;-48
2022/07/01 01:24:43;;;;;;;4.20;3.22;;;27.20;48.70;;;;;;4915753;29;20090;-48
2022/07/01 01:27:09;;;;;;;4.55;3.35;;;27.20;48.60;;;;;;4915723;29;20028;-49
2022/07/01 01:29:36;;;;;;;4.43;3.35;;;27.20;48.60;;;;;;4915519;29;20491;-49
2022/07/01 01:32:03;;;;;;;4.55;3.83;;;27.20;48.60;;;;;;4915542;29;20032;-49
2022/07/01 01:34:29;;;;;;;5.28;4.13;;;27.20;48.80;;;;;;4915209;29;20055;-48
2022/07/01 01:36:55;;;;;;;4.50;3.50;;;27.20;48.90;;;;;;4913517;29;20114;-48
2022/07/01 01:39:21;;;;;;;4.20;3.60;;;27.20;48.80;;;;;;4915247;29;20021;-48
2022/07/01 01:41:47;;;;;;;3.70;3.20;;;27.20;48.90;;;;;;4914103;29;20028;-48
2022/07/01 01:44:13;;;;;;;4.40;3.63;;;27.20;48.80;;;;;;4915706;29;20035;-48
2022/07/01 01:46:39;;;;;;;4.40;3.85;;;27.20;48.90;;;;;;4916051;29;20030;-49
2022/07/01 01:49:06;;;;;;;4.65;3.83;;;27.10;48.90;;;;;;4918799;29;20028;-48
2022/07/01 01:51:32;;;;;;;4.55;3.60;;;27.20;48.80;;;;;;4919848;29;20031;-48
2022/07/01 01:53:59;;;;;;;5.05;3.90;;;27.20;48.80;;;;;;4919797;29;20040;-48
2022/07/01 01:56:25;;;;;;;4.70;4.20;;;27.10;48.80;;;;;;4920302;29;20138;-48
2022/07/01 01:58:51;;;;;;;4.93;4.43;;;27.10;48.80;;;;;;4920140;29;20515;-48
2022/07/01 02:01:18;;;;;;;3.95;3.38;;;27.10;48.80;;;;;;4919031;29;20036;-48
2022/07/01 02:03:46;;;;;;;4.82;3.85;;;27.10;48.90;;;;;;4920084;29;20036;-48
2022/07/01 02:06:13;;;;;;;4.75;3.92;;;27.10;49.00;;;;;;4919293;29;20108;-48
2022/07/01 02:08:39;;;;;;;5.05;3.83;;;27.10;49.00;;;;;;4918764;29;20027;-48
2022/07/01 02:11:06;;;;;;;5.13;4.25;;;27.10;49.10;;;;;;4918545;29;20651;-49
2022/07/01 02:13:32;;;;;;;5.30;4.35;;;27.10;49.10;;;;;;4920448;29;20087;-53
2022/07/01 02:15:58;;;;;;;4.45;3.95;;;27.10;49.00;;;;;;4919531;29;20028;-48
2022/07/01 02:18:24;;;;;;;4.85;3.95;;;27.10;49.10;;;;;;4919489;29;20074;-48
2022/07/01 02:20:50;;;;;;;5.55;3.90;;;27.10;49.10;;;;;;4918688;29;20035;-49
2022/07/01 02:23:17;;;;;;;6.15;3.72;;;27.10;49.00;;;;;;4918680;29;20669;-48
2022/07/01 02:25:43;;;;;;;5.07;3.50;;;27.10;49.10;;;;;;4918488;29;20448;-48
2022/07/01 02:28:09;;;;;;;4.22;3.55;;;27.10;49.00;;;;;;4918348;29;20068;-48
2022/07/01 02:30:36;;;;;;;5.80;4.20;;;27.10;49.20;;;;;;4918437;29;20532;-49
2022/07/01 02:33:03;;;;;;;4.72;3.78;;;27.10;49.20;;;;;;4916454;29;20035;-48
2022/07/01 02:35:29;;;;;;;4.35;3.95;;;27.10;49.10;;;;;;4918473;29;20069;-48
2022/07/01 02:37:55;;;;;;;4.93;3.47;;;27.10;49.10;;;;;;4917481;29;20035;-48
2022/07/01 02:40:21;;;;;;;4.60;3.80;;;27.10;49.10;;;;;;4918457;29;20016;-48
2022/07/01 02:42:46;;;;;;;4.70;4.20;;;27.10;49.10;;;;;;4918403;29;20027;-50
2022/07/01 02:45:12;;;;;;;4.68;3.58;;;27.10;49.00;;;;;;4920132;29;20028;-48
2022/07/01 02:47:39;;;;;;;4.85;4.00;;;27.10;49.00;;;;;;4918582;29;20456;-49
2022/07/01 02:50:08;;;;;;;4.15;3.65;;;27.10;48.80;;;;;;4919369;29;20043;-48
2022/07/01 02:52:35;;;;;;;4.65;4.00;;;27.10;48.90;;;;;;4918538;29;20027;-48
2022/07/01 02:55:06;;;;;;;4.35;3.88;;;27.10;48.90;;;;;;4917692;29;20078;-48
2022/07/01 02:57:32;;;;;;;5.05;4.10;;;27.10;48.90;;;;;;4916920;29;20039;-48
2022/07/01 02:59:58;;;;;;;5.35;3.83;;;27.10;48.80;;;;;;4916501;29;20021;-49
2022/07/01 03:02:24;;;;;;;5.50;3.97;;;27.10;48.70;;;;;;4917933;29;20090;-48
2022/07/01 03:04:51;;;;;;;4.80;3.88;;;27.10;48.80;;;;;;4918023;29;20416;-49
2022/07/01 03:07:18;;;;;;;4.72;3.58;;;27.10;48.70;;;;;;4917867;29;20176;-47
2022/07/01 03:09:44;;;;;;;4.85;3.30;;;27.10;48.80;;;;;;4917907;29;20055;-48
2022/07/01 03:12:25;;;;;;;5.80;3.85;;;27.10;48.80;;;;;;4917734;29;20177;-49
2022/07/01 03:14:52;;;;;;;7.00;3.92;;;27.10;48.70;;;;;;4918222;29;20039;-47
2022/07/01 03:17:18;;;;;;;5.30;3.70;;;27.00;48.80;;;;;;4918454;29;20031;-49
2022/07/01 03:19:44;;;;;;;4.30;3.38;;;27.10;48.90;;;;;;4917876;29;20024;-48
2022/07/01 03:22:10;;;;;;;3.97;3.42;;;27.10;49.00;;;;;;4916474;29;20586;-48
2022/07/01 03:24:36;;;;;;;4.32;3.45;;;27.10;48.90;;;;;;4917701;29;20056;-47
2022/07/01 03:27:02;;;;;;;4.70;3.72;;;27.10;49.00;;;;;;4916977;29;20087;-48
2022/07/01 03:29:28;;;;;;;4.53;3.67;;;27.00;48.90;;;;;;4917252;29;20500;-48
2022/07/01 03:31:53;;;;;;;4.50;3.55;;;27.10;48.90;;;;;;4917410;29;20679;-47
2022/07/01 03:34:19;;;;;;;4.97;3.70;;;27.10;48.90;;;;;;4918953;29;20042;-50
2022/07/01 03:36:45;;;;;;;4.60;3.42;;;27.00;48.90;;;;;;4916944;29;20115;-50
2022/07/01 03:39:10;;;;;;;5.55;3.80;;;27.10;48.80;;;;;;4917464;29;20036;-49
2022/07/01 03:41:36;;;;;;;4.43;3.45;;;27.10;48.80;;;;;;4917670;29;20035;-49
2022/07/01 03:44:02;;;;;;;4.15;3.47;;;27.10;48.70;;;;;;4917260;29;20203;-49
2022/07/01 03:46:31;;;;;;;5.57;3.70;;;27.10;48.60;;;;;;4917332;29;20031;-49
2022/07/01 03:49:00;;;;;;;3.92;3.42;;;27.00;48.60;;;;;;4917017;29;20110;-50
2022/07/01 03:51:25;;;;;;;4.45;3.45;;;27.00;48.60;;;;;;4917810;29;20035;-50
2022/07/01 03:56:36;;;;;;;4.25;3.20;;;27.00;48.60;;;;;;4915927;29;20120;-50
2022/07/01 03:59:01;;;;;;;4.22;3.35;;;27.00;48.60;;;;;;4917238;29;20115;-49
2022/07/01 04:01:27;;;;;;;4.00;3.03;;;27.00;48.70;;;;;;4916223;29;20035;-50
2022/07/01 04:03:53;;;;;;;4.35;3.45;;;27.00;48.60;;;;;;4917764;29;20044;-49
2022/07/01 04:06:19;;;;;;;5.03;3.28;;;27.00;48.70;;;;;;4915659;29;20028;-49
2022/07/01 04:08:47;;;;;;;4.32;3.35;;;27.00;48.70;;;;;;4916526;29;20055;-50
2022/07/01 04:11:13;;;;;;;5.20;3.40;;;27.00;48.70;;;;;;4916548;29;20040;-49
2022/07/01 04:13:39;;;;;;;4.00;3.28;;;27.00;48.70;;;;;;4915833;29;20024;-50
2022/07/01 04:16:05;;;;;;;3.92;3.10;;;27.00;48.70;;;;;;4915884;29;20034;-49
2022/07/01 04:18:32;;;;;;;3.45;2.70;;;27.00;48.10;;;;;;4917614;29;20028;-49
2022/07/01 04:23:43;;;;;;;3.83;2.55;;;27.00;48.20;;;;;;4917391;29;20182;-51
2022/07/01 04:26:09;;;;;;;3.17;2.20;;;27.00;48.20;;;;;;4921070;29;20605;-50
2022/07/01 04:28:35;;;;;;;4.40;2.80;;;27.00;48.00;;;;;;4916816;29;20039;-50
2022/07/01 04:31:00;;;;;;;3.13;2.22;;;27.00;47.90;;;;;;4914823;29;20091;-49
2022/07/01 04:33:26;;;;;;;3.30;2.58;;;27.00;47.70;;;;;;4917554;29;20039;-49
2022/07/01 04:35:52;;;;;;;3.72;2.65;;;27.00;47.60;;;;;;4914761;29;20360;-49
2022/07/01 04:38:18;;;;;;;3.03;2.20;;;27.00;47.40;;;;;;4917672;29;20028;-50
2022/07/01 04:41:58;;;;;;;3.65;2.60;;;27.00;47.30;;;;;;4918582;29;20051;-51
2022/07/01 04:43:29;;;;;;;5.05;2.60;;;27.00;47.20;;;;;;4915981;29;20033;-50
2022/07/01 04:45:55;;;;;;;6.70;3.80;;;27.10;48.00;;;;;;4916124;29;20374;-50
2022/07/01 04:48:21;;;;;;;9.02;4.03;;;27.10;49.20;;;;;;4917193;29;20024;-51
2022/07/01 04:50:47;;;;;;;5.47;3.30;;;27.10;49.00;;;;;;4917024;29;20047;-49
2022/07/01 04:53:13;;;;;;;5.93;3.90;;;27.10;48.90;;;;;;4912640;29;20659;-48
2022/07/01 04:55:39;;;;;;;6.07;4.22;;;27.10;50.80;;;;;;4916523;29;20055;-48
2022/07/01 04:58:05;;;;;;;7.05;4.25;;;27.10;51.90;;;;;;4915032;29;20021;-47
2022/07/01 05:00:31;;;;;;;5.40;2.95;;;27.10;52.20;;;;;;4915619;29;20087;-48
2022/07/01 05:02:57;;;;;;;5.28;3.10;;;27.10;52.20;;;;;;4915101;29;20020;-48
2022/07/01 05:05:23;;;;;;;4.18;2.80;;;27.10;51.30;;;;;;4915180;29;20030;-49
2022/07/01 05:07:48;;;;;;;3.92;2.60;;;27.10;51.70;;;;;;4912862;29;20119;-48
2022/07/01 05:10:14;;;;;;;3.75;2.22;;;27.00;50.90;;;;;;4915364;29;20056;-50
2022/07/01 05:12:40;;;;;;;3.60;2.35;;;27.00;50.30;;;;;;4914907;29;20721;-48
2022/07/01 05:15:06;;;;;;;3.90;1.50;;;26.90;49.50;;;;;;4917133;29;20049;-48
2022/07/01 05:23:09;;;;;;;2.60;1.20;;;26.80;49.60;;;;;;4916127;29;20031;-48
2022/07/01 05:25:35;;;;;;;4.05;1.10;;;26.80;49.50;;;;;;4914916;29;20024;-47
2022/07/01 05:28:00;;;;;;;4.15;1.10;;;26.70;49.10;;;;;;4914320;29;20036;-48
2022/07/01 05:30:26;;;;;;;2.35;1.00;;;26.60;49.70;;;;;;4914199;29;20102;-48
2022/07/01 05:32:52;;;;;;;4.72;1.30;;;26.50;49.90;;;;;;4915935;29;20028;-48
2022/07/01 05:35:17;;;;;;;3.47;1.00;;;26.50;50.10;;;;;;4914160;29;20102;-48
2022/07/01 05:37:43;;;;;;;2.30;0.82;;;26.40;49.80;;;;;;4913170;29;20059;-47
2022/07/01 05:40:09;;;;;;;1.85;0.77;;;26.30;50.20;;;;;;4919675;29;20058;-46
2022/07/01 05:42:35;;;;;;;3.05;0.88;;;26.10;50.60;;;;;;4924259;29;20094;-46
2022/07/01 05:45:01;;;;;;;3.58;0.85;;;26.10;50.90;;;;;;4924595;29;20156;-45
2022/07/01 05:47:26;;;;;;;1.48;0.77;;;26.10;51.00;;;;;;4925236;29;20046;-47
2022/07/01 05:49:52;;;;;;;3.95;0.90;;;26.00;51.00;;;;;;4924612;29;20023;-48
2022/07/01 05:52:18;;;;;;;2.15;0.77;;;26.00;51.30;;;;;;4924404;29;20038;-48
2022/07/01 05:54:43;;;;;;;2.20;0.85;;;26.00;51.40;;;;;;4925482;29;20073;-48
2022/07/01 05:57:10;;;;;;;2.03;0.85;;;26.00;51.50;;;;;;4924960;29;20024;-49
2022/07/01 05:59:36;;;;;;;2.33;0.93;;;26.00;52.00;;;;;;4925653;29;20095;-49
2022/07/01 06:02:02;;;;;;;3.20;0.98;;;26.10;51.70;;;;;;4923371;29;20662;-48
2022/07/01 06:04:28;;;;;;;2.95;0.80;;;26.10;51.80;;;;;;4925452;29;20171;-50
2022/07/01 06:06:54;;;;;;;2.90;0.90;;;26.10;51.50;;;;;;4925574;29;20138;-49
2022/07/01 06:09:20;;;;;;;3.22;1.20;;;26.10;51.40;;;;;;4925900;29;20043;-49
2022/07/01 06:11:46;;;;;;;2.72;1.30;;;26.10;51.70;;;;;;4925339;29;20034;-49
2022/07/01 06:14:12;;;;;;;2.50;1.23;;;26.10;51.60;;;;;;4923414;29;20047;-50
2022/07/01 06:16:37;;;;;;;2.33;1.10;;;26.10;51.90;;;;;;4925134;29;20114;-49
2022/07/01 06:19:06;;;;;;;3.15;1.08;;;26.10;51.70;;;;;;4924336;29;20119;-49
2022/07/01 06:21:32;;;;;;;3.63;1.50;;;26.10;51.70;;;;;;4924981;29;20028;-49
2022/07/01 06:23:58;;;;;;;2.67;1.20;;;26.10;51.90;;;;;;4923811;29;20039;-49
2022/07/01 06:26:24;;;;;;;3.58;1.60;;;26.10;51.80;;;;;;4923930;29;20024;-49
2022/07/01 06:28:50;;;;;;;4.22;1.60;;;26.20;51.80;;;;;;4924480;29;20051;-49
2022/07/01 06:31:16;;;;;;;4.40;1.60;;;26.20;51.90;;;;;;4924772;29;20685;-50
2022/07/01 06:33:42;;;;;;;3.33;1.50;;;26.20;52.10;;;;;;4924939;29;20028;-49
2022/07/01 06:36:07;;;;;;;4.68;1.60;;;26.20;52.00;;;;;;4928294;29;20496;-49
2022/07/01 06:38:33;;;;;;;3.58;1.50;;;26.10;52.10;;;;;;4928111;29;20705;-48
2022/07/01 06:43:43;;;;;;;2.38;1.40;;;26.10;52.20;;;;;;4927425;29;20118;-50
2022/07/01 06:46:09;;;;;;;4.15;1.92;;;26.20;52.30;;;;;;4928047;29;20102;-51
2022/07/01 06:48:35;;;;;;;3.20;1.80;;;26.20;52.30;;;;;;4927372;29;20119;-49
2022/07/01 06:51:05;;;;;;;3.80;1.88;;;26.20;52.50;;;;;;4927777;29;20114;-48
2022/07/01 06:53:30;;;;;;;5.40;1.95;;;26.20;52.70;;;;;;4928374;29;20031;-49
2022/07/01 06:55:57;;;;;;;4.13;1.95;;;26.20;52.90;;;;;;4918742;29;20088;-48
2022/07/01 06:58:23;;;;;;;3.35;2.00;;;26.10;53.60;;;;;;4925363;29;20130;-48
2022/07/01 07:00:48;;;;;;;4.18;2.30;;;26.20;53.00;;;;;;4924045;29;20099;-47
2022/07/01 07:03:14;;;;;;;3.63;2.38;;;26.20;53.10;;;;;;4916298;29;20067;-49
2022/07/01 07:05:40;;;;;;;5.30;2.60;;;26.20;53.20;;;;;;4927455;29;20122;-47
2022/07/01 07:08:06;;;;;;;4.60;2.47;;;26.20;53.00;;;;;;4919856;29;20086;-48
2022/07/01 07:10:32;;;;;;;4.43;2.47;;;26.20;53.00;;;;;;4928083;29;20113;-48
2022/07/01 07:12:57;;;;;;;4.00;2.15;;;26.20;53.10;;;;;;4927771;29;20114;-49
2022/07/01 07:15:23;;;;;;;4.65;2.17;;;26.20;53.20;;;;;;4927981;29;20044;-46
2022/07/01 07:17:49;;;;;;;3.28;2.20;;;26.20;53.20;;;;;;4926676;29;20515;-47
2022/07/01 07:20:14;;;;;;;3.63;2.05;;;26.20;53.40;;;;;;4927567;29;20160;-48
2022/07/01 07:22:40;;;;;;;5.47;2.90;;;26.20;53.40;;;;;;4927809;29;20039;-48
2022/07/01 07:25:06;;;;;;;3.80;2.70;;;26.20;53.40;;;;;;4927733;29;20079;-48
2022/07/01 07:27:32;;;;;;;4.38;2.47;;;26.20;53.30;;;;;;4926977;29;20024;-49
2022/07/01 07:29:58;;;;;;;4.05;2.42;;;26.20;53.20;;;;;;4926933;29;20043;-48
2022/07/01 07:32:23;;;;;;;4.32;2.70;;;26.20;53.40;;;;;;4926759;29;20032;-48
2022/07/01 07:34:49;;;;;;;3.80;2.67;;;26.20;53.60;;;;;;4927291;29;20019;-50
2022/07/01 07:37:15;;;;;;;4.10;2.72;;;26.20;53.50;;;;;;4927047;29;20036;-49
2022/07/01 07:39:40;;;;;;;4.88;2.75;;;26.20;54.30;;;;;;4925711;29;20044;-50
2022/07/01 07:42:06;;;;;;;4.72;2.83;;;26.20;53.40;;;;;;4927270;29;20024;-48
2022/07/01 07:44:32;;;;;;;4.47;2.50;;;26.20;53.40;;;;;;4923027;29;20025;-48
2022/07/01 07:46:58;;;;;;;4.13;2.78;;;26.20;53.90;;;;;;4916483;29;20507;-49
2022/07/01 07:49:24;;;;;;;4.07;2.78;;;26.20;53.30;;;;;;4918099;29;20031;-49
2022/07/01 07:51:51;;;;;;;5.38;2.60;;;26.20;53.40;;;;;;4917088;29;20028;-49
2022/07/01 07:54:17;;;;;;;4.38;2.63;;;26.20;53.30;;;;;;4916485;29;20028;-49
2022/07/01 07:56:43;;;;;;;5.07;2.88;;;26.30;53.20;;;;;;4916755;29;20036;-48
2022/07/01 07:59:09;;;;;;;6.32;3.28;;;26.30;52.90;;;;;;4916650;29;20087;-49
2022/07/01 08:01:35;;;;;;;4.57;2.58;;;26.30;53.00;;;;;;4915709;29;20408;-49
2022/07/01 08:04:01;;;;;;;4.30;2.78;;;26.30;53.20;;;;;;4916336;29;20032;-49
2022/07/01 08:06:28;;;;;;;4.78;2.58;;;26.40;53.00;;;;;;4916409;29;20023;-50
2022/07/01 08:08:55;;;;;;;4.15;2.50;;;26.40;52.90;;;;;;4916120;29;20016;-49
2022/07/01 08:11:20;;;;;;;3.95;2.70;;;26.50;52.70;;;;;;4917337;29;20441;-50
2022/07/01 08:13:46;;;;;;;5.82;2.97;;;26.50;52.70;;;;;;4923139;29;20028;-50
2022/07/01 08:16:12;;;;;;;4.45;2.90;;;26.50;52.90;;;;;;4926754;29;20027;-49
2022/07/01 08:18:38;;;;;;;3.90;2.58;;;26.60;53.20;;;;;;4926312;29;20039;-51
2022/07/01 08:21:04;;;;;;;4.80;3.30;;;26.60;53.30;;;;;;4926925;29;20031;-49
2022/07/01 08:23:30;;;;;;;3.53;2.50;;;26.60;53.50;;;;;;4927148;29;20106;-50
2022/07/01 08:25:55;;;;;;;5.00;2.92;;;26.70;53.00;;;;;;4926590;29;20100;-49
2022/07/01 08:28:21;;;;;;;4.25;2.90;;;26.70;53.10;;;;;;4926316;29;20027;-49
2022/07/01 08:30:47;;;;;;;3.95;2.72;;;26.70;53.20;;;;;;4925848;29;20644;-49
2022/07/01 08:33:13;;;;;;;5.85;2.88;;;26.80;52.80;;;;;;4921409;29;20044;-49
2022/07/01 08:35:39;;;;;;;5.18;3.38;;;26.80;53.30;;;;;;4910804;29;20536;-47
2022/07/01 08:38:05;;;;;;;6.30;3.30;;;26.80;53.10;;;;;;4891794;29;20489;-47
2022/07/01 08:40:31;;;;;;;4.28;3.03;;;26.80;53.20;;;;;;4926192;29;20035;-47
2022/07/01 08:43:04;;;;;;;3.90;2.90;;;26.80;53.00;;;;;;4926352;29;20035;-48
2022/07/01 08:45:31;;;;;;;5.65;3.60;;;26.90;53.60;;;;;;4929043;29;20473;-48
2022/07/01 08:48:00;;;;;;;4.88;3.30;;;26.90;53.60;;;;;;4928083;29;20059;-49
2022/07/01 08:50:31;;;;;;;4.50;3.40;;;27.00;53.20;;;;;;4926052;29;20688;-49
2022/07/01 08:52:57;;;;;;;3.97;3.05;;;27.00;52.80;;;;;;4926202;29;20691;-51
2022/07/01 08:55:23;;;;;;;4.78;3.33;;;27.00;52.80;;;;;;4926410;29;20742;-51
2022/07/01 08:57:50;;;;;;;5.35;3.60;;;27.10;53.30;;;;;;4922441;29;20111;-51
2022/07/01 09:00:17;;;;;;;4.78;2.92;;;27.10;53.20;;;;;;4915498;29;20020;-48
2022/07/01 09:02:57;;;;;;;6.70;3.38;;;27.20;52.50;;;;;;4917060;29;20040;-49
2022/07/01 09:05:25;;;;;;;4.18;3.08;;;27.20;53.00;;;;;;4914617;29;20034;-47
2022/07/01 09:07:58;;;;;;;4.72;3.40;;;27.20;53.20;;;;;;4905312;29;20032;-48
2022/07/01 09:10:25;;;;;;;12.00;10.98;;;27.20;53.20;;;;;;4922146;29;20036;-48
2022/07/01 09:12:51;;;;;;;12.95;11.85;;;27.30;53.70;;;;;;4925822;29;20042;-48
2022/07/01 09:15:31;;;;;;;11.93;10.95;;;27.30;53.60;;;;;;4926122;29;20098;-48
2022/07/01 09:18:03;;;;;;;9.57;7.65;;;27.40;53.50;;;;;;4925245;29;20611;-49
2022/07/01 09:20:38;;;;;;;7.32;6.63;;;27.40;53.50;;;;;;4925741;29;20039;-48
2022/07/01 09:23:07;;;;;;;6.43;5.82;;;27.40;53.40;;;;;;4925771;29;20043;-48
2022/07/01 09:25:39;;;;;;;5.90;5.35;;;27.50;53.50;;;;;;4926215;29;20551;-49
2022/07/01 09:28:12;;;;;;;5.97;4.97;;;27.50;53.40;;;;;;4925287;29;20083;-48
2022/07/01 09:30:39;;;;;;;5.25;4.03;;;27.50;53.40;;;;;;4925919;29;20045;-48
2022/07/01 09:33:19;;;;;;;4.30;3.88;;;27.50;53.40;;;;;;4925355;29;20027;-48
2022/07/01 09:35:49;;;;;;;5.20;3.60;;;27.60;53.30;;;;;;4925683;29;20123;-48
2022/07/01 09:38:17;;;;;;;4.68;3.33;;;27.60;53.30;;;;;;4925413;29;20078;-48
2022/07/01 09:40:54;;;;;;;5.63;3.53;;;27.60;53.20;;;;;;4925450;29;20838;-48
2022/07/01 09:43:32;;;;;;;5.00;3.10;;;27.60;53.10;;;;;;4925663;29;20028;-47
2022/07/01 09:46:07;;;;;;;4.22;2.85;;;27.60;53.00;;;;;;4925616;29;20030;-49
2022/07/01 09:48:32;;;;;;;4.95;2.85;;;27.70;52.90;;;;;;4925341;29;20648;-48
2022/07/01 09:50:59;;;;;;;3.58;2.60;;;27.60;52.90;;;;;;4924400;29;20119;-48
2022/07/01 09:53:25;;;;;;;3.65;2.42;;;27.70;52.80;;;;;;4925889;29;20031;-46
2022/07/01 09:55:50;;;;;;;4.38;2.70;;;27.70;52.70;;;;;;4925868;29;20034;-49
2022/07/01 09:58:16;;;;;;;3.35;2.00;;;27.70;52.30;;;;;;4924973;29;20603;-49
2022/07/01 10:00:42;;;;;;;3.83;2.30;;;27.70;52.30;;;;;;4925871;29;20764;-50
2022/07/01 10:03:09;;;;;;;3.92;2.20;;;27.70;52.20;;;;;;4923722;29;20083;-49
2022/07/01 10:06:04;;;;;;;2.90;1.83;;;27.70;52.20;;;;;;4925581;29;20440;-51
2022/07/01 10:08:41;;;;;;;5.53;2.17;;;27.70;52.20;;;;;;4899879;29;20032;-49
2022/07/01 10:11:52;;;;;;;3.05;2.05;;;27.70;52.30;;;;;;4923524;29;20043;-49
2022/07/01 10:14:20;;;;;;;3.03;2.25;;;27.70;52.10;;;;;;4909883;29;20024;-49
2022/07/01 10:16:49;;;;;;;3.35;1.90;;;27.70;52.10;;;;;;4937047;29;20056;-48
2022/07/01 10:19:22;;;;;;;3.58;2.10;;;27.70;52.10;;;;;;4922578;29;20036;-49
2022/07/01 10:21:48;;;;;;;3.58;2.05;;;27.70;52.10;;;;;;4929628;29;20064;-50
2022/07/01 10:24:18;;;;;;;3.53;2.60;;;27.70;52.00;;;;;;4929077;29;20035;-49
2022/07/01 10:26:45;;;;;;;2.60;1.73;;;27.70;52.00;;;;;;4929021;29;20019;-48
2022/07/01 10:29:32;;;;;;;3.33;1.95;;;27.70;52.00;;;;;;4928764;29;20028;-49
2022/07/01 10:32:11;;;;;;;3.13;1.98;;;27.70;51.90;;;;;;4928720;29;20043;-48
2022/07/01 10:34:41;;;;;;;2.80;1.67;;;27.70;51.80;;;;;;4928843;29;20105;-49
2022/07/01 10:37:11;;;;;;;3.70;2.30;;;27.70;51.80;;;;;;4927372;29;20126;-50
2022/07/01 10:40:01;;;;;;;3.25;2.10;;;27.70;51.80;;;;;;4929081;29;20024;-49
2022/07/01 10:42:37;;;;;;;3.78;2.15;;;27.70;51.90;;;;;;4922235;29;20236;-49
2022/07/01 10:45:06;;;;;;;3.10;1.90;;;27.70;51.90;;;;;;4927352;29;20054;-49
2022/07/01 10:47:32;;;;;;;2.92;1.80;;;27.70;51.90;;;;;;4928104;29;20039;-49
2022/07/01 10:50:03;;;;;;;3.42;2.20;;;27.70;51.80;;;;;;4928311;29;20091;-49
2022/07/01 10:52:29;;;;;;;2.70;1.70;;;27.70;51.80;;;;;;4927596;29;20039;-49
2022/07/01 10:55:00;;;;;;;2.95;2.05;;;27.70;51.80;;;;;;4928275;29;20043;-49
2022/07/01 10:57:29;;;;;;;3.55;2.17;;;27.70;51.80;;;;;;4928410;29;20031;-49
2022/07/01 11:00:18;;;;;;;3.60;1.90;;;27.70;51.80;;;;;;4928406;29;20527;-49
2022/07/01 11:02:43;;;;;;;3.58;2.17;;;27.70;51.80;;;;;;4924269;29;20044;-49
2022/07/01 11:05:14;;;;;;;3.00;1.83;;;27.70;51.80;;;;;;4927994;29;20074;-49
2022/07/01 11:07:45;;;;;;;3.85;2.08;;;27.70;51.80;;;;;;4928493;29;20031;-50
2022/07/01 11:10:15;;;;;;;3.80;2.33;;;27.70;51.80;;;;;;4928429;29;20504;-49
2022/07/01 11:12:43;;;;;;;3.30;1.90;;;27.70;51.80;;;;;;4928435;29;20031;-49
2022/07/01 11:15:10;;;;;;;2.45;1.70;;;27.70;51.80;;;;;;4923679;29;20028;-49
2022/07/01 11:17:43;;;;;;;2.63;1.70;;;27.70;51.80;;;;;;4927761;29;20028;-49
2022/07/01 11:20:10;;;;;;;2.35;1.67;;;27.70;51.80;;;;;;4928008;29;20024;-49
2022/07/01 11:22:36;;;;;;;3.42;1.85;;;27.80;51.90;;;;;;4927236;29;20032;-49
2022/07/01 11:25:04;;;;;;;3.33;1.80;;;27.70;51.80;;;;;;4926717;29;20034;-49
2022/07/01 11:27:31;;;;;;;3.30;1.80;;;27.80;51.80;;;;;;4927630;29;20115;-49
2022/07/01 11:29:59;;;;;;;2.70;1.80;;;27.70;51.70;;;;;;4927546;29;20519;-49
2022/07/01 11:32:29;;;;;;;2.38;1.50;;;27.80;51.80;;;;;;4927755;29;20628;-49
2022/07/01 11:34:55;;;;;;;2.92;1.73;;;27.80;51.70;;;;;;4927872;29;20490;-50
2022/07/01 11:40:12;;;;;;;2.58;1.77;;;27.80;51.70;;;;;;4927566;29;20074;-49
2022/07/01 11:42:39;;;;;;;2.63;1.60;;;27.80;51.60;;;;;;4927480;29;20028;-50
2022/07/01 11:45:06;;;;;;;2.35;1.48;;;27.80;51.70;;;;;;4927619;29;20036;-49
2022/07/01 11:47:32;;;;;;;2.88;1.83;;;27.80;51.60;;;;;;4926965;29;20027;-49
2022/07/01 11:49:58;;;;;;;2.78;1.67;;;27.90;51.60;;;;;;4927090;29;20032;-49
2022/07/01 11:52:25;;;;;;;2.58;1.58;;;27.80;51.70;;;;;;4927667;29;20055;-49
2022/07/01 11:54:53;;;;;;;3.00;1.75;;;27.80;51.70;;;;;;4927619;29;20020;-49
2022/07/01 11:57:24;;;;;;;3.83;1.83;;;27.80;51.70;;;;;;4927694;29;20437;-49
2022/07/01 11:59:52;;;;;;;2.58;1.70;;;27.80;51.70;;;;;;4926917;29;20691;-51
2022/07/01 12:02:21;;;;;;;2.63;1.65;;;27.90;51.70;;;;;;4926998;29;20567;-49
2022/07/01 12:04:49;;;;;;;2.75;1.70;;;27.90;51.70;;;;;;4927161;29;20032;-48
2022/07/01 12:07:18;;;;;;;2.83;1.58;;;27.90;51.70;;;;;;4926835;29;20559;-49
2022/07/01 12:09:44;;;;;;;3.35;1.90;;;27.90;51.60;;;;;;4927060;29;20035;-48
2022/07/01 12:12:21;;;;;;;3.85;2.13;;;27.90;51.70;;;;;;4926865;29;20595;-48
2022/07/01 12:14:57;;;;;;;2.47;1.52;;;27.90;51.70;;;;;;4926773;29;20106;-48
2022/07/01 12:17:24;;;;;;;2.60;1.75;;;27.90;51.60;;;;;;4920894;29;20116;-48
2022/07/01 12:19:52;;;;;;;2.92;1.60;;;27.90;51.60;;;;;;4922555;29;20039;-48
2022/07/01 12:22:20;;;;;;;2.78;1.52;;;27.90;51.60;;;;;;4927223;29;20496;-48
2022/07/01 12:24:50;;;;;;;3.38;1.80;;;27.90;51.70;;;;;;4927246;29;20024;-48
2022/07/01 12:27:16;;;;;;;2.67;1.70;;;28.00;52.10;;;;;;4926809;29;20028;-48
2022/07/01 12:29:45;;;;;;;2.58;1.67;;;28.00;52.10;;;;;;4927023;29;20053;-48
2022/07/01 12:32:17;;;;;;;2.58;1.70;;;27.90;51.70;;;;;;4926818;29;20554;-48
2022/07/01 12:34:47;;;;;;;3.67;1.85;;;28.00;52.00;;;;;;4924947;29;20047;-48
2022/07/01 12:37:18;;;;;;;2.83;1.58;;;28.00;52.10;;;;;;4926366;29;20247;-49
2022/07/01 12:39:55;;;;;;;3.33;1.85;;;28.00;52.00;;;;;;4926401;29;20039;-48
2022/07/01 12:42:26;;;;;;;2.95;1.60;;;28.00;51.90;;;;;;4926487;29;20593;-49
2022/07/01 12:44:53;;;;;;;2.40;1.73;;;28.00;52.00;;;;;;4924966;29;20100;-49
2022/07/01 12:47:29;;;;;;;2.80;1.90;;;28.10;51.90;;;;;;4926068;29;20036;-49
2022/07/01 12:50:19;;;;;;;2.42;1.60;;;28.10;51.90;;;;;;4925978;29;20032;-49
2022/07/01 12:53:08;;;;;;;2.53;1.50;;;28.10;51.90;;;;;;4926512;29;20083;-48
2022/07/01 12:55:45;;;;;;;3.00;1.80;;;28.10;51.80;;;;;;4926353;29;20031;-48
2022/07/01 12:58:13;;;;;;;2.72;1.38;;;28.10;51.80;;;;;;4925738;29;20437;-47
2022/07/01 13:00:40;;;;;;;3.13;1.60;;;28.10;51.70;;;;;;4926345;29;20512;-49
2022/07/01 13:03:06;;;;;;;2.58;1.58;;;28.10;51.70;;;;;;4925745;29;20027;-48
2022/07/01 13:05:34;;;;;;;2.97;1.92;;;28.10;51.70;;;;;;4926486;29;20087;-49
2022/07/01 13:08:00;;;;;;;2.67;1.63;;;28.10;51.70;;;;;;4925850;29;20032;-49